Time,TemperatureF,DewpointF,PressureIn,WindDirection,WindDirectionDegrees,WindSpeedMPH,WindSpeedGustMPH,Humidity,HourlyPrecipIn,Conditions,Clouds,dailyrainin,SolarRadiationWatts/m^2,SoftwareType,DateUTC
2013-02-11 00:01:00,45.0,37.0,-100.00,ENE,57,4.0,8.0,73,-99.99,,,0.00,0.000000,,2013-02-11 08:01:00,
2013-02-11 00:11:00,45.0,37.0,-100.00,ENE,57,4.0,8.0,73,-99.99,,,0.00,0.000000,,2013-02-11 08:11:00,
2013-02-11 00:42:00,44.0,37.0,-100.00,NE,34,4.0,9.0,74,-99.99,,,0.00,0.000000,,2013-02-11 08:42:00,
2013-02-11 00:52:00,44.0,37.0,-100.00,NE,34,4.0,9.0,74,-99.99,,,0.00,0.000000,,2013-02-11 08:52:00,
2013-02-11 01:01:00,44.0,37.0,-100.00,NE,34,4.0,9.0,74,-99.99,,,0.00,0.000000,,2013-02-11 09:01:00,
2013-02-11 01:12:00,44.0,37.0,-100.00,NE,34,4.0,9.0,74,-99.99,,,0.00,0.000000,,2013-02-11 09:12:00,
2013-02-11 01:41:00,44.0,36.0,-100.00,NE,51,5.0,10.0,75,-99.99,,,0.00,0.000000,,2013-02-11 09:41:00,
2013-02-11 01:52:00,44.0,36.0,-100.00,NE,51,5.0,10.0,75,-99.99,,,0.00,0.000000,,2013-02-11 09:52:00,
2013-02-11 02:01:00,44.0,36.0,-100.00,NE,51,5.0,10.0,75,-99.99,,,0.00,0.000000,,2013-02-11 10:01:00,
2013-02-11 02:11:00,44.0,36.0,-100.00,NE,51,5.0,10.0,75,-99.99,,,0.00,0.000000,,2013-02-11 10:11:00,
2013-02-11 02:41:00,44.0,36.0,-100.00,ENE,64,4.0,8.0,75,-99.99,,,0.00,0.000000,,2013-02-11 10:41:00,
2013-02-11 02:52:00,44.0,36.0,-100.00,ENE,64,4.0,8.0,75,-99.99,,,0.00,0.000000,,2013-02-11 10:52:00,
2013-02-11 03:01:00,44.0,36.0,-100.00,ENE,64,4.0,8.0,75,-99.99,,,0.00,0.000000,,2013-02-11 11:01:00,
2013-02-11 03:11:00,44.0,36.0,-100.00,ENE,64,4.0,8.0,75,-99.99,,,0.00,0.000000,,2013-02-11 11:11:00,
2013-02-11 03:42:00,44.0,36.0,-100.00,ENE,58,5.0,8.0,74,-99.99,,,0.00,0.000000,,2013-02-11 11:42:00,
2013-02-11 03:52:00,44.0,36.0,-100.00,ENE,58,5.0,8.0,74,-99.99,,,0.00,0.000000,,2013-02-11 11:52:00,
2013-02-11 04:02:00,44.0,36.0,-100.00,ENE,58,5.0,8.0,74,-99.99,,,0.00,0.000000,,2013-02-11 12:02:00,
2013-02-11 04:12:00,44.0,36.0,-100.00,ENE,58,5.0,8.0,74,-99.99,,,0.00,0.000000,,2013-02-11 12:12:00,
2013-02-11 04:42:00,44.0,36.0,-100.00,ENE,57,5.0,9.0,75,-99.99,,,0.00,0.000000,,2013-02-11 12:42:00,
2013-02-11 04:52:00,44.0,36.0,-100.00,ENE,57,5.0,9.0,75,-99.99,,,0.00,0.000000,,2013-02-11 12:52:00,
2013-02-11 05:01:00,44.0,36.0,-100.00,ENE,57,5.0,9.0,75,-99.99,,,0.00,0.000000,,2013-02-11 13:01:00,
2013-02-11 05:11:00,44.0,36.0,-100.00,ENE,57,5.0,9.0,75,-99.99,,,0.00,0.000000,,2013-02-11 13:11:00,
2013-02-11 05:42:00,44.0,36.0,-100.00,ENE,58,5.0,9.0,75,-99.99,,,-99.99,0.000000,,2013-02-11 13:42:00,
2013-02-11 05:52:00,44.0,36.0,-100.00,ENE,58,5.0,9.0,75,-99.99,,,-99.99,0.000000,,2013-02-11 13:52:00,
2013-02-11 06:01:00,44.0,36.0,-100.00,ENE,58,5.0,9.0,75,-99.99,,,-99.99,0.000000,,2013-02-11 14:01:00,
2013-02-11 06:11:00,44.0,36.0,-100.00,ENE,58,5.0,9.0,75,-99.99,,,-99.99,0.000000,,2013-02-11 14:11:00,
2013-02-11 06:42:00,43.0,36.0,-100.00,NE,56,5.0,10.0,75,-99.99,,,0.00,0.000000,,2013-02-11 14:42:00,
2013-02-11 06:53:00,43.0,36.0,-100.00,NE,56,5.0,10.0,75,-99.99,,,0.00,0.000000,,2013-02-11 14:53:00,
2013-02-11 07:01:00,43.0,36.0,-100.00,NE,56,5.0,10.0,75,-99.99,,,0.00,0.000000,,2013-02-11 15:01:00,
2013-02-11 07:11:00,43.0,36.0,-100.00,NE,56,5.0,10.0,75,-99.99,,,0.00,0.000000,,2013-02-11 15:11:00,
2013-02-11 07:42:00,43.0,36.0,-100.00,NE,56,6.0,13.0,74,-99.99,,,0.00,1.050000,,2013-02-11 15:42:00,
2013-02-11 07:52:00,43.0,36.0,-100.00,NE,56,6.0,13.0,74,-99.99,,,0.00,1.050000,,2013-02-11 15:52:00,
2013-02-11 08:01:00,43.0,36.0,-100.00,NE,56,6.0,13.0,74,-99.99,,,0.00,1.050000,,2013-02-11 16:01:00,
2013-02-11 08:11:00,43.0,36.0,-100.00,NE,56,6.0,13.0,74,-99.99,,,0.00,1.050000,,2013-02-11 16:11:00,
2013-02-11 08:42:00,44.0,35.0,-100.00,NE,53,5.0,10.0,72,-99.99,,,0.00,46.139999,,2013-02-11 16:42:00,
2013-02-11 08:52:00,44.0,35.0,-100.00,NE,53,5.0,10.0,72,-99.99,,,0.00,46.139999,,2013-02-11 16:52:00,
2013-02-11 09:01:00,44.0,35.0,-100.00,NE,53,5.0,10.0,72,-99.99,,,0.00,46.139999,,2013-02-11 17:01:00,
2013-02-11 09:11:00,44.0,35.0,-100.00,NE,53,5.0,10.0,72,-99.99,,,0.00,46.139999,,2013-02-11 17:11:00,
2013-02-11 09:42:00,45.0,35.0,-100.00,NE,48,6.0,14.0,69,-99.99,,,0.00,131.330002,,2013-02-11 17:42:00,
2013-02-11 09:53:00,45.0,35.0,-100.00,NE,48,6.0,14.0,69,-99.99,,,0.00,131.330002,,2013-02-11 17:53:00,
2013-02-11 10:01:00,45.0,35.0,-100.00,NE,48,6.0,14.0,69,-99.99,,,0.00,131.330002,,2013-02-11 18:01:00,
2013-02-11 10:11:00,45.0,35.0,-100.00,NE,48,6.0,14.0,69,-99.99,,,0.00,131.330002,,2013-02-11 18:11:00,
2013-02-11 10:42:00,47.0,35.0,-100.00,NE,48,7.0,15.0,62,-99.99,,,-99.99,395.260010,,2013-02-11 18:42:00,
2013-02-11 10:53:00,47.0,35.0,-100.00,NE,48,7.0,15.0,62,-99.99,,,-99.99,395.260010,,2013-02-11 18:53:00,
2013-02-11 11:01:00,47.0,35.0,-100.00,NE,48,7.0,15.0,62,-99.99,,,-99.99,395.260010,,2013-02-11 19:01:00,
2013-02-11 11:11:00,47.0,35.0,-100.00,NE,48,7.0,15.0,62,-99.99,,,-99.99,395.260010,,2013-02-11 19:11:00,
2013-02-11 12:41:00,51.0,36.0,-100.00,NNE,22,7.0,15.0,56,-99.99,,,-99.99,561.919983,,2013-02-11 20:41:00,
2013-02-11 12:52:00,51.0,36.0,-100.00,NNE,22,7.0,15.0,56,-99.99,,,-99.99,561.919983,,2013-02-11 20:52:00,
2013-02-11 13:02:00,51.0,36.0,-100.00,NNE,22,7.0,15.0,56,-99.99,,,-99.99,561.919983,,2013-02-11 21:02:00,
2013-02-11 13:11:00,51.0,36.0,-100.00,NNE,22,7.0,15.0,56,-99.99,,,-99.99,561.919983,,2013-02-11 21:11:00,
2013-02-11 13:41:00,53.0,37.0,-100.00,NE,43,6.0,15.0,54,-99.99,,,-99.99,556.109985,,2013-02-11 21:41:00,
2013-02-11 13:52:00,53.0,37.0,-100.00,NE,43,6.0,15.0,54,-99.99,,,-99.99,556.109985,,2013-02-11 21:52:00,
2013-02-11 14:01:00,53.0,37.0,-100.00,NE,43,6.0,15.0,54,-99.99,,,-99.99,556.109985,,2013-02-11 22:01:00,
2013-02-11 14:11:00,53.0,37.0,-100.00,NE,43,6.0,15.0,54,-99.99,,,-99.99,556.109985,,2013-02-11 22:11:00,
2013-02-11 14:42:00,54.0,38.0,-100.00,NE,43,7.0,16.0,54,-99.99,,,0.00,501.260010,,2013-02-11 22:42:00,
2013-02-11 14:52:00,54.0,38.0,-100.00,NE,43,7.0,16.0,54,-99.99,,,0.00,501.260010,,2013-02-11 22:52:00,
2013-02-11 15:01:00,54.0,38.0,-100.00,NE,43,7.0,16.0,54,-99.99,,,0.00,501.260010,,2013-02-11 23:01:00,
2013-02-11 15:11:00,54.0,38.0,-100.00,NE,43,7.0,16.0,54,-99.99,,,0.00,501.260010,,2013-02-11 23:11:00,
2013-02-11 15:41:00,52.0,41.0,-100.00,North,357,7.0,13.0,65,-99.99,,,0.00,379.690002,,2013-02-11 23:41:00,
2013-02-11 15:52:00,52.0,41.0,-100.00,North,357,7.0,13.0,65,-99.99,,,0.00,379.690002,,2013-02-11 23:52:00,
2013-02-11 16:01:00,52.0,41.0,-100.00,North,357,7.0,13.0,65,-99.99,,,0.00,379.690002,,2013-02-12 00:01:00,
2013-02-11 16:11:00,52.0,41.0,-100.00,North,357,7.0,13.0,65,-99.99,,,0.00,379.690002,,2013-02-12 00:11:00,
2013-02-11 16:42:00,50.0,41.0,-100.00,NNW,347,7.0,12.0,71,-99.99,,,0.00,197.339996,,2013-02-12 00:42:00,
2013-02-11 16:52:00,50.0,41.0,-100.00,NNW,347,7.0,12.0,71,-99.99,,,0.00,197.339996,,2013-02-12 00:52:00,
2013-02-11 17:01:00,50.0,41.0,-100.00,NNW,347,7.0,12.0,71,-99.99,,,0.00,197.339996,,2013-02-12 01:01:00,
2013-02-11 17:11:00,50.0,41.0,-100.00,NNW,347,7.0,12.0,71,-99.99,,,0.00,197.339996,,2013-02-12 01:11:00,
2013-02-11 17:42:00,49.0,41.0,-100.00,North,351,6.0,10.0,75,-99.99,,,0.00,35.680000,,2013-02-12 01:42:00,
2013-02-11 17:52:00,49.0,41.0,-100.00,North,351,6.0,10.0,75,-99.99,,,0.00,35.680000,,2013-02-12 01:52:00,
2013-02-11 18:01:00,49.0,41.0,-100.00,North,351,6.0,10.0,75,-99.99,,,0.00,35.680000,,2013-02-12 02:01:00,
2013-02-11 18:11:00,49.0,41.0,-100.00,North,351,6.0,10.0,75,-99.99,,,0.00,35.680000,,2013-02-12 02:11:00,
2013-02-11 18:41:00,48.0,42.0,-100.00,North,356,4.0,8.0,80,-99.99,,,0.00,0.120000,,2013-02-12 02:41:00,
2013-02-11 18:52:00,48.0,42.0,-100.00,North,356,4.0,8.0,80,-99.99,,,0.00,0.120000,,2013-02-12 02:52:00,
2013-02-11 19:02:00,48.0,42.0,-100.00,North,356,4.0,8.0,80,-99.99,,,0.00,0.120000,,2013-02-12 03:02:00,
2013-02-11 19:11:00,48.0,42.0,-100.00,North,356,4.0,8.0,80,-99.99,,,0.00,0.120000,,2013-02-12 03:11:00,
2013-02-11 19:41:00,47.0,42.0,-100.00,NNE,31,1.0,3.0,84,-99.99,,,0.00,0.000000,,2013-02-12 03:41:00,
2013-02-11 19:52:00,47.0,42.0,-100.00,NNE,31,1.0,3.0,84,-99.99,,,0.00,0.000000,,2013-02-12 03:52:00,
2013-02-11 20:01:00,47.0,42.0,-100.00,NNE,31,1.0,3.0,84,-99.99,,,0.00,0.000000,,2013-02-12 04:01:00,
2013-02-11 20:11:00,47.0,42.0,-100.00,NNE,31,1.0,3.0,84,-99.99,,,0.00,0.000000,,2013-02-12 04:11:00,
2013-02-11 20:41:00,47.0,43.0,-100.00,North,359,3.0,7.0,86,-99.99,,,0.00,0.000000,,2013-02-12 04:41:00,
2013-02-11 20:52:00,47.0,43.0,-100.00,North,359,3.0,7.0,86,-99.99,,,0.00,0.000000,,2013-02-12 04:52:00,
2013-02-11 21:01:00,47.0,43.0,-100.00,North,359,3.0,7.0,86,-99.99,,,0.00,0.000000,,2013-02-12 05:01:00,
2013-02-11 21:11:00,47.0,43.0,-100.00,North,359,3.0,7.0,86,-99.99,,,0.00,0.000000,,2013-02-12 05:11:00,
2013-02-11 21:42:00,46.0,45.0,-100.00,NE,43,1.0,3.0,95,-99.99,,,0.00,0.000000,,2013-02-12 05:42:00,
2013-02-11 21:52:00,46.0,45.0,-100.00,NE,43,1.0,3.0,95,-99.99,,,0.00,0.000000,,2013-02-12 05:52:00,
2013-02-11 22:01:00,46.0,45.0,-100.00,NE,43,1.0,3.0,95,-99.99,,,0.00,0.000000,,2013-02-12 06:01:00,
2013-02-11 22:12:00,46.0,45.0,-100.00,NE,43,1.0,3.0,95,-99.99,,,0.00,0.000000,,2013-02-12 06:12:00,
2013-02-11 22:42:00,45.0,44.0,-100.00,NE,34,0.0,1.0,96,-99.99,,,0.00,0.000000,,2013-02-12 06:42:00,
2013-02-11 22:52:00,45.0,44.0,-100.00,NE,34,0.0,1.0,96,-99.99,,,0.00,0.000000,,2013-02-12 06:52:00,
2013-02-11 23:01:00,45.0,44.0,-100.00,NE,34,0.0,1.0,96,-99.99,,,0.00,0.000000,,2013-02-12 07:01:00,
2013-02-11 23:11:00,45.0,44.0,-100.00,NE,34,0.0,1.0,96,-99.99,,,0.00,0.000000,,2013-02-12 07:11:00,
2013-02-11 23:41:00,45.0,44.0,-100.00,East,81,0.0,2.0,97,-99.99,,,0.00,0.000000,,2013-02-12 07:41:00,
2013-02-11 23:52:00,45.0,44.0,-100.00,East,81,0.0,2.0,97,-99.99,,,0.00,0.000000,,2013-02-12 07:52:00,